Gloucester City, New Jersey
Current Conditions -  °F | °C
As of 7:54 AM on Friday 28 Nov 2014 (Local Time) from KPHL Reporting Station
Few Clouds Few Clouds  
Wind Chill: 25°   Ceiling: Unl
Heat Index: 34°   Visibility: 10mi
Dew Point: 21°   Wind: 13mph
Humidity: 59%   Direction: 300°WNW
Pressure: 30.22"   Gusts: 22mph
Location:  39.9°N, 75.12°W
Report Text: KPHL 281254Z 30011G19KT 10SM FEW065 01/M06 A3022 RMK AO2 SLP232 T00111061 $
Loading
Personal Weather Stations






























Interactive Weather Map New forecast layout! Learn more

10-Day Weather Forecast

Advertisements
Track Severe Weather on mobile